KCFV - Coffeyville, Kansas, USA
Distance from station: ENE 93mi, 150km
Updated: Fri, Jun-21-2024 4:52am CDT
Overcast
Overcast
 Wind from SSE
Wind: SSE 7 mph, 11 km/h
Temperature: 77°F , 25°C
Dew Point: 70°F , 21°C
Humidity: 79%
Barometer: 30.18 inHg , 1022 hPa
Clouds: Overcast
Visibility: 10 miles , 16 km
Cloud details: Few Clouds 8000 ft
Overcast 9500 ft
2024/06/21 09:52 KCFV 210952Z AUTO 16006KT 10SM FEW080 OVC095 25/21 A3018 RMK AO2 SLP210 T02500206
KIDP - Independence, Kansas, USA
Distance from station: NE 86mi, 138km
Updated: Fri, Jun-21-2024 5:35am CDT
Overcast
Overcast
 Wind from S
Wind: S 7 mph, 11 km/h
Temperature: 75°F , 24°C
Dew Point: 72°F , 22°C
Humidity: 89%
Barometer: 30.19 inHg , 1022.4 hPa
Clouds: Overcast
Visibility: 10 miles , 16 km
Cloud details: Partly Cloudy 4100 ft
Overcast 9000 ft
2024/06/21 10:35 KIDP 211035Z AUTO 17006KT 10SM SCT041 OVC090 24/22 A3019 RMK AO2 T02390217
 
KIAB - Mcconnell Afb, Kansas, USA
Distance from station: N 84mi, 135km
Updated: Fri, Jun-21-2024 4:55am CDT
Mostly Cloudy
Mostly Cloudy
 Wind from S
Wind: S 7 mph, 11 km/h
Temperature: 75°F , 24°C
Dew Point: 72°F , 22°C
Humidity: 89%
Barometer: 30.16 inHg , 1021.3 hPa
Clouds: Mostly Cloudy
Visibility: 10 miles , 16 km
Cloud details: Mostly Cloudy 17000 ft
2024/06/21 09:55 KIAB 210955Z AUTO 18006KT 10SM BKN170 24/22 A3016 RMK AO2 SLP198 T02400215 $
KICT - Wichita, Kansas, USA
Distance from station: NNW 88mi, 142km
Updated: Fri, Jun-21-2024 4:53am CDT
Mostly Cloudy
Mostly Cloudy
 Wind from SSE
Wind: SSE 8 mph, 13 km/h
Temperature: 73°F , 23°C
Dew Point: 72°F , 22°C
Humidity: 94%
Barometer: 30.17 inHg , 1021.7 hPa
Clouds: Mostly Cloudy
Visibility: 10 miles , 16 km
Cloud details: Mostly Cloudy 12000 ft
Mostly Cloudy 25000 ft
2024/06/21 09:53 KICT 210953Z 16007KT 10SM BKN120 BKN250 23/22 A3017 RMK AO2 SLP199 T02330217
 
KAAO - Wichita/Jabara, Kansas, USA
Distance from station: N 93mi, 149km
Updated: Fri, Jun-21-2024 4:54am CDT
Clear
Clear
 Wind from SSE
Wind: SSE 7 mph, 11 km/h
Temperature: 73°F , 23°C
Dew Point: 70°F , 21°C
Humidity: 89%
Barometer: 30.17 inHg , 1021.7 hPa
Clouds: Clear
Visibility: 10 miles , 16 km
2024/06/21 09:54 KAAO 210954Z AUTO 16006KT 10SM CLR 23/21 A3017 RMK AO2 SLP203 T02330211
KWLD - Winfield/Arkansa, Kansas, USA
Distance from station: N 52mi, 84km
Updated: Fri, Jun-21-2024 4:54am CDT
Clear
Clear
 Wind from SSE
Wind: SSE 7 mph, 11 km/h
Temperature: 75°F , 24°C
Dew Point: 73°F , 23°C
Humidity: 94%
Barometer: 30.18 inHg , 1022 hPa
Clouds: Clear
Visibility: 10 miles , 16 km
2024/06/21 09:54 KWLD 210954Z AUTO 16006KT 10SM CLR 24/23 A3018 RMK AO2 SLP207 T02390228
 
KAVK - Alva, Oklahoma, USA
Distance from station: WNW 94mi, 152km
Updated: Fri, Jun-21-2024 5:35am CDT
Few Clouds
Few Clouds
 Wind from SSE
Wind: SSE 9 mph, 15 km/h
Temperature: 75°F , 24°C
Dew Point: 73°F , 23°C
Humidity: 94%
Barometer: 30.15 inHg , 1021 hPa
Clouds: Few Clouds
Visibility: 10 miles , 16 km
Cloud details: Few Clouds 4300 ft
2024/06/21 10:35 KAVK 211035Z AUTO 16008KT 10SM FEW043 24/23 A3015 RMK AO2
KBVO - Bartlesville, Oklahoma, USA
Distance from station: ENE 61mi, 98km
Updated: Fri, Jun-21-2024 4:53am CDT
Overcast
Overcast
 Wind from S
Wind: S 5 mph, 7 km/h
Temperature: 77°F , 25°C
Dew Point: 72°F , 22°C
Humidity: 83%
Barometer: 30.18 inHg , 1022 hPa
Clouds: Overcast
Visibility: 10 miles , 16 km
Cloud details: Overcast 9000 ft
2024/06/21 09:53 KBVO 210953Z AUTO 18004KT 10SM OVC090 25/22 A3018 RMK AO2 SLP209 T02500222
 
KBKN - Blackwell, Oklahoma, USA
Distance from station: NW 29mi, 47km
Updated: Fri, Jun-21-2024 5:35am CDT
Overcast
Overcast
 Wind from SSE
Wind: SSE 5 mph, 7 km/h
Temperature: 75°F , 24°C
Dew Point: 73°F , 23°C
Humidity: 94%
Barometer: 30.17 inHg , 1021.7 hPa
Clouds: Overcast
Cloud details: Mostly Cloudy 4600 ft
Overcast 5500 ft
2024/06/21 10:35 KBKN 211035Z AUTO 15004KT BKN046 OVC055 24/23 A3017 RMK AO2
KGCM - Claremore, Oklahoma, USA
Distance from station: E 86mi, 138km
Updated: Fri, Jun-21-2024 5:35am CDT
Fog, Overcast
Fog, Overcast
 Wind from ESE
Wind: ESE 3 mph, 6 km/h
Temperature: 75°F , 24°C
Dew Point: 75°F , 24°C
Humidity: 100%
Barometer: 30.19 inHg , 1022.4 hPa
Summary: Fog
Clouds: Overcast
Visibility: 1/4 mile , 0.4 km
Cloud details: Partly Cloudy 6000 ft
Overcast 7000 ft
2024/06/21 10:35 KGCM 211035Z AUTO 12003KT 1/4SM FG SCT060 OVC070 24/24 A3019 RMK AO2 VIS M1/4V5 TSNO
 
KCQB - Chandler, Oklahoma, USA
Distance from station: SSE 50mi, 80km
Updated: Fri, Jun-21-2024 5:35am CDT
Clear
Clear
 Wind from SSE
Wind: SSE 6 mph, 9 km/h
Temperature: 73°F , 23°C
Dew Point: 70°F , 21°C
Humidity: 89%
Barometer: 30.19 inHg , 1022.4 hPa
Clouds: Clear
Visibility: 10 miles , 16 km
2024/06/21 10:35 KCQB 211035Z AUTO 16005KT 10SM CLR 23/21 A3019 RMK AO2 T02330213
KCUH - Cushing, Oklahoma, USA
Distance from station: SSE 35mi, 57km
Updated: Fri, Jun-21-2024 5:35am CDT
Partly Cloudy
Partly Cloudy
 Wind from SSE
Wind: SSE 3 mph, 6 km/h
Temperature: 75°F , 24°C
Dew Point: 70°F , 21°C
Humidity: 83%
Barometer: 30.18 inHg , 1022 hPa
Clouds: Partly Cloudy
Visibility: 10 miles , 16 km
Cloud details: Partly Cloudy 9500 ft
2024/06/21 10:35 KCUH 211035Z AUTO 16003KT 10SM SCT095 24/21 A3018 RMK AO2 T02350211
 
KRQO - El Reno Muni, Oklahoma, USA
Distance from station: SW 85mi, 137km
Updated: Fri, Jun-21-2024 5:35am CDT
Mostly Cloudy
Mostly Cloudy
 Wind from S
Wind: S 9 mph, 15 km/h
Temperature: 75°F , 24°C
Dew Point: 72°F , 22°C
Humidity: 89%
Barometer: 30.19 inHg , 1022.4 hPa
Clouds: Mostly Cloudy
Visibility: 10 miles , 16 km
Cloud details: Mostly Cloudy 3800 ft
Mostly Cloudy 4600 ft
2024/06/21 10:35 KRQO 211035Z AUTO 17008KT 10SM BKN038 BKN046 24/22 A3019 RMK AO2 T02350221
KEND - Enid/Vance Afb, Oklahoma, USA
Distance from station: W 50mi, 81km
Updated: Fri, Jun-21-2024 4:55am CDT
Partly Cloudy
Partly Cloudy
 Wind from ESE
Wind: ESE 6 mph, 9 km/h
Temperature: 75°F , 24°C
Dew Point: 72°F , 22°C
Humidity: 89%
Barometer: 30.14 inHg , 1020.7 hPa
Clouds: Partly Cloudy
Visibility: 10 miles , 16 km
Cloud details: Partly Cloudy 17000 ft
2024/06/21 09:55 KEND 210955Z AUTO 12005KT 10SM SCT170 24/22 A3014 RMK AO2 SLP193 T02430218 $
 
KWDG - Enid/Woodring, Oklahoma, USA
Distance from station: W 42mi, 67km
Updated: Fri, Jun-21-2024 5:35am CDT
Clear
Clear
 Wind from NNE
Wind: NNE 7 mph, 11 km/h
Temperature: 73°F , 23°C
Dew Point: 72°F , 22°C
Humidity: 94%
Barometer: 30.17 inHg , 1021.7 hPa
Clouds: Clear
Visibility: 10 miles , 16 km
2024/06/21 10:35 KWDG 211035Z AUTO 03006KT 10SM CLR 23/22 A3017 RMK AO2
KGOK - Guthrie, Oklahoma, USA
Distance from station: SSW 44mi, 71km
Updated: Fri, Jun-21-2024 4:53am CDT
Clear
Clear
 Wind from SSE
Wind: SSE 7 mph, 11 km/h
Temperature: 75°F , 24°C
Dew Point: 72°F , 22°C
Humidity: 89%
Barometer: 30.17 inHg , 1021.7 hPa
Clouds: Clear
Visibility: 10 miles , 16 km
2024/06/21 09:53 KGOK 210953Z AUTO 15006KT 10SM CLR 24/22 A3017 RMK AO2 SLP206 T02440217
 
KOUN - Norman/Westheime, Oklahoma, USA
Distance from station: SSW 84mi, 136km
Updated: Fri, Jun-21-2024 5:35am CDT
Clear
Clear
 Wind from SSE
Wind: SSE 9 mph, 15 km/h
Temperature: 75°F , 24°C
Dew Point: 70°F , 21°C
Humidity: 83%
Barometer: 30.17 inHg , 1021.7 hPa
Clouds: Clear
Visibility: 10 miles , 16 km
2024/06/21 10:35 KOUN 211035Z AUTO 15008KT 10SM CLR 24/21 A3017 RMK AO2 T02400211
KOKC - Oklahoma City, Oklahoma, USA
Distance from station: SSW 78mi, 126km
Updated: Fri, Jun-21-2024 4:52am CDT
Mostly Cloudy
Mostly Cloudy
 Wind from SSE
Wind: SSE 9 mph, 15 km/h
Temperature: 73°F , 23°C
Dew Point: 70°F , 21°C
Humidity: 89%
Barometer: 30.17 inHg , 1021.7 hPa
Clouds: Mostly Cloudy
Visibility: 10 miles , 16 km
Cloud details: Mostly Cloudy 25000 ft
2024/06/21 09:52 KOKC 210952Z 16008KT 10SM BKN250 23/21 A3017 RMK AO2 SLP202 T02330211
 
KPWA - Okla City/Wiley, Oklahoma, USA
Distance from station: SSW 70mi, 113km
Updated: Fri, Jun-21-2024 4:53am CDT
Clear
Clear
 Wind from S
Wind: S 12 mph, 19 km/h
Temperature: 77°F , 25°C
Dew Point: 72°F , 22°C
Humidity: 83%
Barometer: 30.17 inHg , 1021.7 hPa
Clouds: Clear
Visibility: 10 miles , 16 km
2024/06/21 09:53 KPWA 210953Z AUTO 17010KT 10SM CLR 25/22 A3017 RMK AO2 SLP197 T02500217
KRCE - Okla City/Page, Oklahoma, USA
Distance from station: SW 78mi, 126km
Updated: Fri, Jun-21-2024 5:35am CDT
Mostly Cloudy
Mostly Cloudy
 Wind from SSE
Wind: SSE 9 mph, 15 km/h
Temperature: 75°F , 24°C
Dew Point: 70°F , 21°C
Humidity: 83%
Barometer: 30.17 inHg , 1021.7 hPa
Clouds: Mostly Cloudy
Visibility: 10 miles , 16 km
Cloud details: Mostly Cloudy 4300 ft
2024/06/21 10:35 KRCE 211035Z AUTO 16008KT 10SM BKN043 24/21 A3017 RMK AO2 TSNO
 
KOKM - Okmulgee, Oklahoma, USA
Distance from station: SE 79mi, 127km
Updated: Fri, Jun-21-2024 5:35am CDT
Partly Cloudy
Partly Cloudy
 Wind from SE
Wind: SE 3 mph, 6 km/h
Temperature: 75°F , 24°C
Dew Point: 73°F , 23°C
Humidity: 94%
Barometer: 30.19 inHg , 1022.4 hPa
Clouds: Partly Cloudy
Visibility: 10 miles , 16 km
Cloud details: Partly Cloudy 8500 ft
Partly Cloudy 10000 ft
2024/06/21 10:35 KOKM 211035Z AUTO 13003KT 10SM SCT085 SCT100 24/23 A3019 RMK AO2 T02400232
KPNC - Ponca City, Oklahoma, USA
Distance from station: N 22mi, 36km
Updated: Tue, Jun-18-2024 10:53am CDT
NOT Current
Mostly Cloudy
Mostly Cloudy
 Wind from S
Wind: S 15 mph, 24 km/h, Gust: 37 mph, 59 km/h
Temperature: 84°F , 29°C
Heat Index: 86°F , 30°C
Dew Point: 66°F , 19°C
Humidity: 55%
Barometer: 29.82 inHg , 1009.8 hPa
Clouds: Mostly Cloudy
Visibility: 10 miles , 16 km
Cloud details: Mostly Cloudy 4000 ft
2024/06/18 15:53 KPNC 181553Z AUTO 19013G32KT 10SM BKN040 29/19 A2982 RMK AO2 PK WND 19034/1522 SLP084 T02890194 PWINO $
 
KSNL - Shawnee, Oklahoma, USA
Distance from station: S 74mi, 119km
Updated: Fri, Jun-21-2024 5:35am CDT
Clear
Clear
 Wind from S
Wind: S 8 mph, 13 km/h
Temperature: 75°F , 24°C
Dew Point: 73°F , 23°C
Humidity: 94%
Barometer: 30.19 inHg , 1022.4 hPa
Clouds: Clear
Visibility: 10 miles , 16 km
2024/06/21 10:35 KSNL 211035Z AUTO 17007KT 10SM CLR 24/23 A3019 RMK AO2 T02400229
KSWO - Stillwater, Oklahoma, USA
Distance from station: S 17mi, 28km
Updated: Fri, Jun-21-2024 4:53am CDT
Clear
Clear
 Wind from SSE
Wind: SSE 8 mph, 13 km/h
Temperature: 77°F , 25°C
Dew Point: 73°F , 23°C
Humidity: 89%
Barometer: 30.17 inHg , 1021.7 hPa
Clouds: Clear
Visibility: 10 miles , 16 km
2024/06/21 09:53 KSWO 210953Z AUTO 16007KT 10SM CLR 25/23 A3017 RMK AO2 SLP204 T02500228
 
KTIK - Tinker Afb, Oklahoma, USA
Distance from station: SSW 72mi, 115km
Updated: Fri, Jun-21-2024 4:55am CDT
Clear
Clear
 Wind from S
Wind: S 6 mph, 9 km/h
Temperature: 75°F , 24°C
Dew Point: 72°F , 22°C
Humidity: 89%
Barometer: 30.14 inHg , 1020.7 hPa
Clouds: Clear
Visibility: 10 miles , 16 km
2024/06/21 09:55 KTIK 210955Z AUTO 17005KT 10SM CLR 24/22 A3014 RMK AO2 SLP194 T02400217
KTUL - Tulsa, Oklahoma, USA
Distance from station: ESE 65mi, 105km
Updated: Fri, Jun-21-2024 4:53am CDT
Mostly Cloudy
Mostly Cloudy
 Wind from S
Wind: S 9 mph, 15 km/h
Temperature: 81°F , 27°C
Heat Index: 85°F , 29°C
Dew Point: 72°F , 22°C
Humidity: 74%
Barometer: 30.18 inHg , 1022 hPa
Clouds: Mostly Cloudy
Visibility: 10 miles , 16 km
Cloud details: Few Clouds 6000 ft
Mostly Cloudy 9000 ft
Mostly Cloudy 15000 ft
2024/06/21 09:53 KTUL 210953Z 17008KT 10SM FEW060 BKN090 BKN150 27/22 A3018 RMK AO2 SLP211 T02670222

Metar display script from Saratoga-Weather.org